sensor_id;sensor_type;location;lat;lon;timestamp;pressure;altitude;pressure_sealevel;temperature;humidity
38530;BME280;24301;54.332;48.386;2023-04-23T00:02:09;98423.53;;;7.59;66.68
38530;BME280;24301;54.332;48.386;2023-04-23T00:04:37;98422.69;;;7.56;66.46
38530;BME280;24301;54.332;48.386;2023-04-23T00:07:04;98433.16;;;7.54;66.41
38530;BME280;24301;54.332;48.386;2023-04-23T00:09:30;98432.34;;;7.51;66.74
38530;BME280;24301;54.332;48.386;2023-04-23T00:11:59;98439.34;;;7.48;66.88
38530;BME280;24301;54.332;48.386;2023-04-23T00:14:27;98444.59;;;7.45;66.46
38530;BME280;24301;54.332;48.386;2023-04-23T00:16:53;98442.84;;;7.44;66.61
38530;BME280;24301;54.332;48.386;2023-04-23T00:19:19;98448.19;;;7.35;66.51
38530;BME280;24301;54.332;48.386;2023-04-23T00:21:45;98451.69;;;7.34;67.21
38530;BME280;24301;54.332;48.386;2023-04-23T00:24:11;98448.25;;;7.29;66.60
38530;BME280;24301;54.332;48.386;2023-04-23T00:26:37;98453.50;;;7.26;67.00
38530;BME280;24301;54.332;48.386;2023-04-23T00:29:03;98455.31;;;7.21;67.74
38530;BME280;24301;54.332;48.386;2023-04-23T00:31:29;98458.75;;;7.19;66.66
38530;BME280;24301;54.332;48.386;2023-04-23T00:33:55;98457.88;;;7.24;67.67
38530;BME280;24301;54.332;48.386;2023-04-23T00:36:21;98457.81;;;7.28;67.53
38530;BME280;24301;54.332;48.386;2023-04-23T00:38:48;98456.94;;;7.31;67.26
38530;BME280;24301;54.332;48.386;2023-04-23T00:41:14;98459.56;;;7.29;67.13
38530;BME280;24301;54.332;48.386;2023-04-23T00:43:40;98457.00;;;7.25;67.08
38530;BME280;24301;54.332;48.386;2023-04-23T00:46:07;98468.31;;;7.27;67.09
38530;BME280;24301;54.332;48.386;2023-04-23T00:48:33;98470.06;;;7.23;67.15
38530;BME280;24301;54.332;48.386;2023-04-23T00:51:04;98467.56;;;7.12;66.94
38530;BME280;24301;54.332;48.386;2023-04-23T00:53:31;98467.56;;;7.14;67.76
38530;BME280;24301;54.332;48.386;2023-04-23T00:55:58;98468.47;;;7.07;67.55
38530;BME280;24301;54.332;48.386;2023-04-23T00:58:27;98476.38;;;7.02;66.87
38530;BME280;24301;54.332;48.386;2023-04-23T01:00:53;98477.28;;;6.95;67.38
38530;BME280;24301;54.332;48.386;2023-04-23T01:03:20;98476.47;;;6.86;67.10
38530;BME280;24301;54.332;48.386;2023-04-23T01:05:46;98467.91;;;6.67;66.98
38530;BME280;24301;54.332;48.386;2023-04-23T01:08:14;98471.41;;;6.63;67.04
38530;BME280;24301;54.332;48.386;2023-04-23T01:10:43;98479.28;;;6.54;67.17
38530;BME280;24301;54.332;48.386;2023-04-23T01:13:11;98473.28;;;6.39;67.62
38530;BME280;24301;54.332;48.386;2023-04-23T01:15:37;98484.63;;;6.35;67.44
38530;BME280;24301;54.332;48.386;2023-04-23T01:18:03;98481.16;;;6.35;68.09
38530;BME280;24301;54.332;48.386;2023-04-23T01:20:33;98482.03;;;6.32;68.12
38530;BME280;24301;54.332;48.386;2023-04-23T01:23:02;98491.59;;;6.35;68.52
38530;BME280;24301;54.332;48.386;2023-04-23T01:25:28;98482.03;;;6.33;67.79
38530;BME280;24301;54.332;48.386;2023-04-23T01:27:55;98489.84;;;6.38;68.28
38530;BME280;24301;54.332;48.386;2023-04-23T01:30:23;98488.97;;;6.38;68.19
38530;BME280;24301;54.332;48.386;2023-04-23T01:32:49;98489.88;;;6.30;69.04
38530;BME280;24301;54.332;48.386;2023-04-23T01:35:16;98489.00;;;6.31;68.39
38530;BME280;24301;54.332;48.386;2023-04-23T01:37:43;98501.16;;;6.36;68.92
38530;BME280;24301;54.332;48.386;2023-04-23T01:40:10;98490.66;;;6.42;68.68
38530;BME280;24301;54.332;48.386;2023-04-23T01:42:37;98492.41;;;6.46;68.75
38530;BME280;24301;54.332;48.386;2023-04-23T01:45:03;98495.84;;;6.50;68.54
38530;BME280;24301;54.332;48.386;2023-04-23T01:47:34;98481.09;;;6.42;68.51
38530;BME280;24301;54.332;48.386;2023-04-23T01:50:00;98495.88;;;6.51;68.37
38530;BME280;24301;54.332;48.386;2023-04-23T01:52:26;98501.91;;;6.56;67.95
38530;BME280;24301;54.332;48.386;2023-04-23T01:54:51;98501.03;;;6.59;67.90
38530;BME280;24301;54.332;48.386;2023-04-23T01:57:17;98501.72;;;6.87;67.70
38530;BME280;24301;54.332;48.386;2023-04-23T01:59:55;98503.91;;;7.40;66.97
38530;BME280;24301;54.332;48.386;2023-04-23T02:02:23;98502.47;;;7.97;65.57
38530;BME280;24301;54.332;48.386;2023-04-23T02:04:50;98507.00;;;8.55;64.62
38530;BME280;24301;54.332;48.386;2023-04-23T02:07:17;98500.53;;;8.82;62.57
38530;BME280;24301;54.332;48.386;2023-04-23T02:09:43;98502.53;;;9.19;61.78
38530;BME280;24301;54.332;48.386;2023-04-23T02:12:09;98507.19;;;9.55;60.34
38530;BME280;24301;54.332;48.386;2023-04-23T02:14:36;98502.03;;;9.99;58.87
38530;BME280;24301;54.332;48.386;2023-04-23T02:17:02;98505.41;;;10.50;57.69
38530;BME280;24301;54.332;48.386;2023-04-23T02:19:28;98507.03;;;10.93;55.95
38530;BME280;24301;54.332;48.386;2023-04-23T02:21:56;98513.97;;;11.34;54.55
38530;BME280;24301;54.332;48.386;2023-04-23T02:24:22;98524.22;;;11.79;52.99
38530;BME280;24301;54.332;48.386;2023-04-23T02:26:47;98516.16;;;12.19;51.70
38530;BME280;24301;54.332;48.386;2023-04-23T02:29:14;98510.84;;;12.52;50.32
38530;BME280;24301;54.332;48.386;2023-04-23T02:31:40;98516.34;;;12.73;49.70
38530;BME280;24301;54.332;48.386;2023-04-23T02:34:06;98519.09;;;12.98;48.69
38530;BME280;24301;54.332;48.386;2023-04-23T02:36:32;98519.16;;;13.23;48.05
38530;BME280;24301;54.332;48.386;2023-04-23T02:38:58;98524.28;;;13.57;47.06
38530;BME280;24301;54.332;48.386;2023-04-23T02:41:24;98516.78;;;13.95;46.30
38530;BME280;24301;54.332;48.386;2023-04-23T02:43:50;98521.06;;;14.47;45.35
38530;BME280;24301;54.332;48.386;2023-04-23T02:46:16;98529.38;;;14.85;44.16
38530;BME280;24301;54.332;48.386;2023-04-23T02:48:42;98524.44;;;15.20;43.29
38530;BME280;24301;54.332;48.386;2023-04-23T02:51:10;98538.56;;;15.64;42.48
38530;BME280;24301;54.332;48.386;2023-04-23T02:53:36;98544.41;;;16.14;41.65
38530;BME280;24301;54.332;48.386;2023-04-23T02:56:02;98537.47;;;16.70;40.49
38530;BME280;24301;54.332;48.386;2023-04-23T02:58:30;98538.84;;;17.35;39.39
38530;BME280;24301;54.332;48.386;2023-04-23T03:00:58;98541.06;;;17.97;38.40
38530;BME280;24301;54.332;48.386;2023-04-23T03:03:26;98548.13;;;18.16;37.22
38530;BME280;24301;54.332;48.386;2023-04-23T03:05:57;98547.50;;;18.11;37.10
38530;BME280;24301;54.332;48.386;2023-04-23T03:08:23;98551.81;;;18.29;36.36
38530;BME280;24301;54.332;48.386;2023-04-23T03:10:49;98572.91;;;18.50;36.19
38530;BME280;24301;54.332;48.386;2023-04-23T03:13:15;98575.78;;;18.79;35.40
38530;BME280;24301;54.332;48.386;2023-04-23T03:15:41;98572.75;;;19.35;34.82
38530;BME280;24301;54.332;48.386;2023-04-23T03:18:07;98577.78;;;19.86;33.73
38530;BME280;24301;54.332;48.386;2023-04-23T03:20:35;98581.13;;;20.06;33.39
38530;BME280;24301;54.332;48.386;2023-04-23T03:23:04;98588.22;;;20.21;32.80
38530;BME280;24301;54.332;48.386;2023-04-23T03:25:32;98598.22;;;20.47;32.35
38530;BME280;24301;54.332;48.386;2023-04-23T03:27:58;98600.72;;;20.93;31.91
38530;BME280;24301;54.332;48.386;2023-04-23T03:30:26;98604.47;;;21.60;31.32
38530;BME280;24301;54.332;48.386;2023-04-23T03:32:54;98601.41;;;21.94;29.82
38530;BME280;24301;54.332;48.386;2023-04-23T03:35:22;98620.66;;;21.99;30.05
38530;BME280;24301;54.332;48.386;2023-04-23T03:37:48;98626.31;;;22.48;29.42
38530;BME280;24301;54.332;48.386;2023-04-23T03:40:14;98622.44;;;22.91;28.67
38530;BME280;24301;54.332;48.386;2023-04-23T03:42:42;98628.44;;;22.94;28.49
38530;BME280;24301;54.332;48.386;2023-04-23T03:45:11;98615.63;;;23.11;28.34
38530;BME280;24301;54.332;48.386;2023-04-23T03:47:38;98629.03;;;23.37;27.78
38530;BME280;24301;54.332;48.386;2023-04-23T03:50:08;98635.06;;;23.76;26.85
38530;BME280;24301;54.332;48.386;2023-04-23T03:52:34;98640.38;;;24.14;26.95
38530;BME280;24301;54.332;48.386;2023-04-23T03:55:01;98641.88;;;24.29;26.52
38530;BME280;24301;54.332;48.386;2023-04-23T03:57:33;98648.50;;;24.01;26.56
38530;BME280;24301;54.332;48.386;2023-04-23T04:00:19;98653.91;;;24.59;26.21
38530;BME280;24301;54.332;48.386;2023-04-23T04:02:45;98651.47;;;25.36;25.48
38530;BME280;24301;54.332;48.386;2023-04-23T04:05:12;98653.63;;;25.76;24.66
38530;BME280;24301;54.332;48.386;2023-04-23T04:07:38;98659.59;;;26.13;24.08
38530;BME280;24301;54.332;48.386;2023-04-23T04:10:05;98657.03;;;26.44;24.00
38530;BME280;24301;54.332;48.386;2023-04-23T04:12:31;98661.53;;;27.17;23.53
38530;BME280;24301;54.332;48.386;2023-04-23T04:14:57;98656.75;;;27.71;22.52
38530;BME280;24301;54.332;48.386;2023-04-23T04:17:23;98675.66;;;28.10;22.38
38530;BME280;24301;54.332;48.386;2023-04-23T04:19:49;98677.22;;;28.52;21.61
38530;BME280;24301;54.332;48.386;2023-04-23T04:22:16;98677.53;;;29.07;21.51
38530;BME280;24301;54.332;48.386;2023-04-23T04:24:42;98694.69;;;29.25;21.13
38530;BME280;24301;54.332;48.386;2023-04-23T04:27:08;98682.16;;;29.80;20.64
38530;BME280;24301;54.332;48.386;2023-04-23T04:29:34;98693.00;;;30.53;19.57
38530;BME280;24301;54.332;48.386;2023-04-23T04:32:00;98693.84;;;31.06;19.57
38530;BME280;24301;54.332;48.386;2023-04-23T04:34:27;98695.50;;;31.60;18.56
38530;BME280;24301;54.332;48.386;2023-04-23T04:36:53;98695.06;;;31.90;18.52
38530;BME280;24301;54.332;48.386;2023-04-23T04:39:19;98701.91;;;32.27;18.06
38530;BME280;24301;54.332;48.386;2023-04-23T04:41:46;98707.16;;;32.78;17.61
38530;BME280;24301;54.332;48.386;2023-04-23T04:44:12;98710.34;;;33.15;17.00
38530;BME280;24301;54.332;48.386;2023-04-23T04:46:39;98712.66;;;33.43;16.70
38530;BME280;24301;54.332;48.386;2023-04-23T04:49:08;98716.16;;;33.92;16.61
38530;BME280;24301;54.332;48.386;2023-04-23T04:51:39;98726.13;;;34.08;16.35
38530;BME280;24301;54.332;48.386;2023-04-23T04:54:06;98725.53;;;34.21;16.05
38530;BME280;24301;54.332;48.386;2023-04-23T04:56:33;98723.63;;;34.45;16.17
38530;BME280;24301;54.332;48.386;2023-04-23T04:58:59;98723.63;;;34.45;15.79
38530;BME280;24301;54.332;48.386;2023-04-23T05:01:27;98727.78;;;35.02;15.54
38530;BME280;24301;54.332;48.386;2023-04-23T05:03:54;98727.97;;;35.61;14.90
38530;BME280;24301;54.332;48.386;2023-04-23T05:06:20;98730.50;;;36.14;14.80
38530;BME280;24301;54.332;48.386;2023-04-23T05:08:46;98740.44;;;36.22;14.48
38530;BME280;24301;54.332;48.386;2023-04-23T05:11:16;98746.22;;;36.12;14.34
38530;BME280;24301;54.332;48.386;2023-04-23T05:13:43;98755.03;;;36.29;14.36
38530;BME280;24301;54.332;48.386;2023-04-23T05:16:09;98754.53;;;36.62;14.08
38530;BME280;24301;54.332;48.386;2023-04-23T05:18:40;98753.41;;;36.78;13.96
38530;BME280;24301;54.332;48.386;2023-04-23T05:21:06;98759.38;;;36.89;13.59
38530;BME280;24301;54.332;48.386;2023-04-23T05:23:33;98762.28;;;37.44;13.53
38530;BME280;24301;54.332;48.386;2023-04-23T05:26:00;98765.53;;;37.97;12.89
38530;BME280;24301;54.332;48.386;2023-04-23T05:28:31;98769.41;;;38.43;12.54
38530;BME280;24301;54.332;48.386;2023-04-23T05:31:00;98778.25;;;38.24;12.03
38530;BME280;24301;54.332;48.386;2023-04-23T05:33:26;98774.13;;;37.93;12.45
38530;BME280;24301;54.332;48.386;2023-04-23T05:35:53;98778.56;;;37.94;12.24
38530;BME280;24301;54.332;48.386;2023-04-23T05:38:19;98784.13;;;38.15;12.10
38530;BME280;24301;54.332;48.386;2023-04-23T05:40:45;98778.59;;;38.01;12.33
38530;BME280;24301;54.332;48.386;2023-04-23T05:43:11;98791.09;;;38.24;11.98
38530;BME280;24301;54.332;48.386;2023-04-23T05:45:37;98789.66;;;38.28;11.77
38530;BME280;24301;54.332;48.386;2023-04-23T05:48:06;98788.44;;;38.51;11.27
38530;BME280;24301;54.332;48.386;2023-04-23T05:50:32;98789.72;;;38.69;11.62
38530;BME280;24301;54.332;48.386;2023-04-23T05:52:58;98791.84;;;38.80;11.15
38530;BME280;24301;54.332;48.386;2023-04-23T05:55:27;98788.00;;;39.35;11.09
38530;BME280;24301;54.332;48.386;2023-04-23T05:57:56;98787.91;;;39.82;10.89
38530;BME280;24301;54.332;48.386;2023-04-23T06:00:22;98795.72;;;40.24;10.67
38530;BME280;24301;54.332;48.386;2023-04-23T06:02:48;98798.31;;;40.12;10.68
38530;BME280;24301;54.332;48.386;2023-04-23T06:05:14;98796.75;;;39.91;10.73
38530;BME280;24301;54.332;48.386;2023-04-23T06:07:41;98808.94;;;40.08;10.68
38530;BME280;24301;54.332;48.386;2023-04-23T06:10:07;98811.41;;;40.30;10.27
38530;BME280;24301;54.332;48.386;2023-04-23T06:12:33;98813.16;;;40.50;10.15
38530;BME280;24301;54.332;48.386;2023-04-23T06:15:05;98813.34;;;40.55;10.11
38530;BME280;24301;54.332;48.386;2023-04-23T06:17:32;98816.25;;;40.28;10.35
38530;BME280;24301;54.332;48.386;2023-04-23T06:19:58;98809.41;;;40.76;10.29
38530;BME280;24301;54.332;48.386;2023-04-23T06:22:24;98820.75;;;40.55;10.09
38530;BME280;24301;54.332;48.386;2023-04-23T06:24:50;98815.38;;;40.34;10.11
38530;BME280;24301;54.332;48.386;2023-04-23T06:27:16;98830.97;;;40.79;10.12
38530;BME280;24301;54.332;48.386;2023-04-23T06:29:47;98816.97;;;41.76;9.81
38530;BME280;24301;54.332;48.386;2023-04-23T06:32:13;98825.91;;;41.90;9.02
38530;BME280;24301;54.332;48.386;2023-04-23T06:34:40;98824.16;;;41.77;9.23
38530;BME280;24301;54.332;48.386;2023-04-23T06:37:06;98811.34;;;41.45;9.51
38530;BME280;24301;54.332;48.386;2023-04-23T06:39:34;98820.09;;;40.59;9.77
38530;BME280;24301;54.332;48.386;2023-04-23T06:42:03;98806.63;;;40.05;9.70
38530;BME280;24301;54.332;48.386;2023-04-23T06:44:53;98826.81;;;40.63;9.55
38530;BME280;24301;54.332;48.386;2023-04-23T06:47:19;98818.28;;;40.78;9.13
38530;BME280;24301;54.332;48.386;2023-04-23T06:49:45;98819.84;;;40.61;9.28
38530;BME280;24301;54.332;48.386;2023-04-23T06:52:11;98822.75;;;40.41;9.26
38530;BME280;24301;54.332;48.386;2023-04-23T06:54:38;98822.53;;;40.42;9.24
38530;BME280;24301;54.332;48.386;2023-04-23T06:57:03;98829.13;;;40.66;8.89
38530;BME280;24301;54.332;48.386;2023-04-23T06:59:30;98824.91;;;40.32;8.44
38530;BME280;24301;54.332;48.386;2023-04-23T07:01:57;98819.78;;;39.97;8.20
38530;BME280;24301;54.332;48.386;2023-04-23T07:04:23;98823.66;;;40.21;8.13
38530;BME280;24301;54.332;48.386;2023-04-23T07:06:49;98823.53;;;40.48;7.75
38530;BME280;24301;54.332;48.386;2023-04-23T07:09:15;98830.53;;;40.83;7.81
38530;BME280;24301;54.332;48.386;2023-04-23T07:11:41;98837.31;;;40.80;7.59
38530;BME280;24301;54.332;48.386;2023-04-23T07:14:07;98822.91;;;40.07;7.47
38530;BME280;24301;54.332;48.386;2023-04-23T07:16:33;98825.19;;;39.51;7.71
38530;BME280;24301;54.332;48.386;2023-04-23T07:19:00;98835.44;;;40.42;7.46
38530;BME280;24301;54.332;48.386;2023-04-23T07:21:27;98827.22;;;39.76;8.15
38530;BME280;24301;54.332;48.386;2023-04-23T07:23:55;98832.72;;;38.48;8.40
38530;BME280;24301;54.332;48.386;2023-04-23T07:26:21;98829.91;;;37.15;9.51
38530;BME280;24301;54.332;48.386;2023-04-23T07:28:47;98831.91;;;33.39;11.06
38530;BME280;24301;54.332;48.386;2023-04-23T07:31:13;98824.44;;;30.21;13.40
38530;BME280;24301;54.332;48.386;2023-04-23T07:33:39;98827.78;;;30.05;13.85
38530;BME280;24301;54.332;48.386;2023-04-23T07:36:06;98823.25;;;31.67;12.68
38530;BME280;24301;54.332;48.386;2023-04-23T07:38:31;98822.22;;;33.20;12.01
38530;BME280;24301;54.332;48.386;2023-04-23T07:40:57;98833.47;;;34.30;11.67
38530;BME280;24301;54.332;48.386;2023-04-23T07:43:23;98824.13;;;34.94;10.21
38530;BME280;24301;54.332;48.386;2023-04-23T07:45:50;98828.16;;;34.84;10.13
38530;BME280;24301;54.332;48.386;2023-04-23T07:48:16;98827.59;;;34.10;10.25
38530;BME280;24301;54.332;48.386;2023-04-23T07:50:42;98834.56;;;34.13;10.66
38530;BME280;24301;54.332;48.386;2023-04-23T07:53:08;98826.97;;;34.00;10.51
38530;BME280;24301;54.332;48.386;2023-04-23T07:55:34;98810.53;;;33.76;11.02
38530;BME280;24301;54.332;48.386;2023-04-23T07:58:05;98817.34;;;33.72;11.30
38530;BME280;24301;54.332;48.386;2023-04-23T08:00:31;98823.78;;;33.15;11.33
38530;BME280;24301;54.332;48.386;2023-04-23T08:02:57;98798.50;;;30.91;12.08
38530;BME280;24301;54.332;48.386;2023-04-23T08:05:24;98817.59;;;29.51;12.67
38530;BME280;24301;54.332;48.386;2023-04-23T08:07:51;98812.44;;;28.51;13.44
38530;BME280;24301;54.332;48.386;2023-04-23T08:10:18;98800.00;;;26.73;14.01
38530;BME280;24301;54.332;48.386;2023-04-23T08:12:44;98817.00;;;25.51;14.91
38530;BME280;24301;54.332;48.386;2023-04-23T08:15:11;98783.16;;;24.30;16.00
38530;BME280;24301;54.332;48.386;2023-04-23T08:17:40;98785.69;;;23.83;16.59
38530;BME280;24301;54.332;48.386;2023-04-23T08:20:06;98761.94;;;23.01;17.23
38530;BME280;24301;54.332;48.386;2023-04-23T08:22:33;98775.75;;;22.81;17.51
38530;BME280;24301;54.332;48.386;2023-04-23T08:24:59;98775.09;;;22.91;17.50
38530;BME280;24301;54.332;48.386;2023-04-23T08:27:25;98787.19;;;22.71;17.46
38530;BME280;24301;54.332;48.386;2023-04-23T08:29:51;98784.53;;;22.71;17.36
38530;BME280;24301;54.332;48.386;2023-04-23T08:32:17;98783.22;;;22.36;17.43
38530;BME280;24301;54.332;48.386;2023-04-23T08:34:43;98762.38;;;21.72;18.48
38530;BME280;24301;54.332;48.386;2023-04-23T08:37:09;98798.09;;;21.71;18.68
38530;BME280;24301;54.332;48.386;2023-04-23T08:39:38;98797.25;;;21.70;18.75
38530;BME280;24301;54.332;48.386;2023-04-23T08:42:10;98823.94;;;21.56;18.99
38530;BME280;24301;54.332;48.386;2023-04-23T08:44:40;98808.00;;;21.10;19.99
38530;BME280;24301;54.332;48.386;2023-04-23T08:47:16;98806.44;;;20.61;20.03
38530;BME280;24301;54.332;48.386;2023-04-23T08:49:44;98796.03;;;19.76;20.47
38530;BME280;24301;54.332;48.386;2023-04-23T08:52:24;98776.00;;;19.53;20.34
38530;BME280;24301;54.332;48.386;2023-04-23T08:55:03;98795.28;;;19.74;20.20
38530;BME280;24301;54.332;48.386;2023-04-23T08:57:31;98779.81;;;19.65;20.30
38530;BME280;24301;54.332;48.386;2023-04-23T08:59:59;98781.00;;;19.75;20.34
38530;BME280;24301;54.332;48.386;2023-04-23T09:02:33;98759.44;;;19.64;20.10
38530;BME280;24301;54.332;48.386;2023-04-23T09:05:02;98752.38;;;19.63;20.08
38530;BME280;24301;54.332;48.386;2023-04-23T09:07:29;98793.50;;;19.75;19.94
38530;BME280;24301;54.332;48.386;2023-04-23T09:09:55;98780.81;;;19.62;20.16
38530;BME280;24301;54.332;48.386;2023-04-23T09:12:21;98785.72;;;19.70;20.41
38530;BME280;24301;54.332;48.386;2023-04-23T09:14:49;98774.22;;;19.86;20.28
38530;BME280;24301;54.332;48.386;2023-04-23T09:17:20;98811.84;;;19.47;20.00
38530;BME280;24301;54.332;48.386;2023-04-23T09:19:46;98792.47;;;18.75;21.01
38530;BME280;24301;54.332;48.386;2023-04-23T09:22:12;98798.72;;;18.56;21.50
38530;BME280;24301;54.332;48.386;2023-04-23T09:24:41;98810.00;;;18.79;20.93
38530;BME280;24301;54.332;48.386;2023-04-23T09:27:10;98795.31;;;18.89;20.81
38530;BME280;24301;54.332;48.386;2023-04-23T09:29:36;98802.03;;;18.96;20.95
38530;BME280;24301;54.332;48.386;2023-04-23T09:32:07;98801.88;;;19.00;20.92
38530;BME280;24301;54.332;48.386;2023-04-23T09:34:35;98772.63;;;18.82;20.78
38530;BME280;24301;54.332;48.386;2023-04-23T09:37:05;98779.22;;;18.91;20.89
38530;BME280;24301;54.332;48.386;2023-04-23T09:39:38;98785.28;;;18.94;20.93
38530;BME280;24301;54.332;48.386;2023-04-23T09:42:04;98784.03;;;19.02;20.65
38530;BME280;24301;54.332;48.386;2023-04-23T09:44:32;98781.13;;;18.89;20.78
38530;BME280;24301;54.332;48.386;2023-04-23T09:47:07;98795.28;;;19.07;20.92
38530;BME280;24301;54.332;48.386;2023-04-23T09:49:45;98796.09;;;18.91;20.97
38530;BME280;24301;54.332;48.386;2023-04-23T09:52:12;98809.81;;;19.01;20.70
38530;BME280;24301;54.332;48.386;2023-04-23T09:54:38;98800.78;;;18.86;20.70
38530;BME280;24301;54.332;48.386;2023-04-23T09:57:04;98801.56;;;18.71;20.88
38530;BME280;24301;54.332;48.386;2023-04-23T09:59:34;98789.91;;;18.73;21.06
38530;BME280;24301;54.332;48.386;2023-04-23T10:02:05;98780.91;;;18.58;21.25
38530;BME280;24301;54.332;48.386;2023-04-23T10:04:37;98795.84;;;18.61;21.52
38530;BME280;24301;54.332;48.386;2023-04-23T10:07:04;98793.47;;;18.37;21.48
38530;BME280;24301;54.332;48.386;2023-04-23T10:09:33;98811.25;;;18.54;21.48
38530;BME280;24301;54.332;48.386;2023-04-23T10:12:01;98802.47;;;18.52;21.54
38530;BME280;24301;54.332;48.386;2023-04-23T10:14:29;98808.47;;;18.57;21.38
38530;BME280;24301;54.332;48.386;2023-04-23T10:17:03;98812.03;;;18.74;21.22
38530;BME280;24301;54.332;48.386;2023-04-23T10:19:34;98797.97;;;18.72;21.01
38530;BME280;24301;54.332;48.386;2023-04-23T10:22:07;98787.31;;;18.89;21.26
38530;BME280;24301;54.332;48.386;2023-04-23T10:24:39;98769.72;;;19.04;21.21
38530;BME280;24301;54.332;48.386;2023-04-23T10:27:11;98811.25;;;19.24;20.98
38530;BME280;24301;54.332;48.386;2023-04-23T10:29:38;98790.44;;;19.15;20.90
38530;BME280;24301;54.332;48.386;2023-04-23T10:32:05;98804.78;;;19.46;20.76
38530;BME280;24301;54.332;48.386;2023-04-23T10:34:32;98810.66;;;19.69;20.58
38530;BME280;24301;54.332;48.386;2023-04-23T10:37:00;98818.59;;;19.87;20.54
38530;BME280;24301;54.332;48.386;2023-04-23T10:39:35;98813.56;;;19.98;20.29
38530;BME280;24301;54.332;48.386;2023-04-23T10:42:02;98819.66;;;20.00;20.20
38530;BME280;24301;54.332;48.386;2023-04-23T10:44:36;98807.25;;;19.83;20.28
38530;BME280;24301;54.332;48.386;2023-04-23T10:47:04;98811.69;;;19.66;20.76
38530;BME280;24301;54.332;48.386;2023-04-23T10:49:31;98819.69;;;19.66;20.54
38530;BME280;24301;54.332;48.386;2023-04-23T10:52:02;98813.69;;;19.63;20.52
38530;BME280;24301;54.332;48.386;2023-04-23T10:54:30;98821.56;;;19.64;20.31
38530;BME280;24301;54.332;48.386;2023-04-23T10:56:58;98823.97;;;19.53;20.47
38530;BME280;24301;54.332;48.386;2023-04-23T10:59:27;98819.06;;;19.28;20.25
38530;BME280;24301;54.332;48.386;2023-04-23T11:02:04;98832.88;;;19.18;20.45
38530;BME280;24301;54.332;48.386;2023-04-23T11:04:33;98829.13;;;18.87;20.45
38530;BME280;24301;54.332;48.386;2023-04-23T11:07:10;98828.72;;;18.77;20.69
38530;BME280;24301;54.332;48.386;2023-04-23T11:09:46;98827.47;;;18.67;20.30
38530;BME280;24301;54.332;48.386;2023-04-23T11:12:31;98833.66;;;18.67;20.75
38530;BME280;24301;54.332;48.386;2023-04-23T11:14:58;98828.00;;;18.74;20.59
38530;BME280;24301;54.332;48.386;2023-04-23T11:22:37;98830.22;;;19.18;20.33
38530;BME280;24301;54.332;48.386;2023-04-23T11:25:07;98820.31;;;19.38;20.30
38530;BME280;24301;54.332;48.386;2023-04-23T11:27:33;98822.31;;;19.50;20.09
38530;BME280;24301;54.332;48.386;2023-04-23T11:30:03;98820.69;;;19.48;20.02
38530;BME280;24301;54.332;48.386;2023-04-23T11:32:31;98821.09;;;19.40;20.45
38530;BME280;24301;54.332;48.386;2023-04-23T11:34:58;98821.94;;;19.41;20.46
38530;BME280;24301;54.332;48.386;2023-04-23T11:37:30;98828.78;;;19.62;20.51
38530;BME280;24301;54.332;48.386;2023-04-23T11:39:56;98827.94;;;19.62;20.10
38530;BME280;24301;54.332;48.386;2023-04-23T11:42:23;98798.59;;;19.46;20.17
38530;BME280;24301;54.332;48.386;2023-04-23T11:44:51;98816.34;;;19.63;19.78
38530;BME280;24301;54.332;48.386;2023-04-23T11:47:18;98790.81;;;19.59;19.41
38530;BME280;24301;54.332;48.386;2023-04-23T11:49:44;98823.31;;;19.81;19.12
38530;BME280;24301;54.332;48.386;2023-04-23T11:52:10;98813.16;;;19.88;18.75
38530;BME280;24301;54.332;48.386;2023-04-23T11:54:39;98823.97;;;20.03;18.65
38530;BME280;24301;54.332;48.386;2023-04-23T11:57:05;98826.88;;;20.14;18.38
38530;BME280;24301;54.332;48.386;2023-04-23T11:59:31;98825.69;;;20.20;19.23
38530;BME280;24301;54.332;48.386;2023-04-23T12:01:58;98831.19;;;20.01;19.28
38530;BME280;24301;54.332;48.386;2023-04-23T12:04:30;98835.50;;;19.70;19.36
38530;BME280;24301;54.332;48.386;2023-04-23T12:06:57;98835.94;;;19.62;19.48
38530;BME280;24301;54.332;48.386;2023-04-23T12:09:27;98834.34;;;19.58;19.53
38530;BME280;24301;54.332;48.386;2023-04-23T12:11:56;98829.94;;;19.41;19.59
38530;BME280;24301;54.332;48.386;2023-04-23T12:14:27;98831.75;;;19.40;19.75
38530;BME280;24301;54.332;48.386;2023-04-23T12:16:54;98835.03;;;19.45;20.64
38530;BME280;24301;54.332;48.386;2023-04-23T12:19:26;98841.09;;;19.65;20.09
38530;BME280;24301;54.332;48.386;2023-04-23T12:22:01;98837.72;;;19.61;19.79
38530;BME280;24301;54.332;48.386;2023-04-23T12:24:29;98830.09;;;19.37;19.73
38530;BME280;24301;54.332;48.386;2023-04-23T12:26:59;98835.25;;;19.07;20.02
38530;BME280;24301;54.332;48.386;2023-04-23T12:29:30;98839.41;;;18.95;19.95
38530;BME280;24301;54.332;48.386;2023-04-23T12:31:58;98825.53;;;18.88;19.88
38530;BME280;24301;54.332;48.386;2023-04-23T12:34:24;98834.63;;;18.84;20.12
38530;BME280;24301;54.332;48.386;2023-04-23T12:36:54;98818.94;;;18.60;20.25
38530;BME280;24301;54.332;48.386;2023-04-23T12:39:32;98832.69;;;18.51;20.56
38530;BME280;24301;54.332;48.386;2023-04-23T12:42:04;98832.41;;;18.57;20.53
38530;BME280;24301;54.332;48.386;2023-04-23T12:44:33;98832.56;;;18.72;21.49
38530;BME280;24301;54.332;48.386;2023-04-23T12:47:05;98825.19;;;18.94;20.88
38530;BME280;24301;54.332;48.386;2023-04-23T12:49:37;98834.63;;;19.19;20.53
38530;BME280;24301;54.332;48.386;2023-04-23T12:52:05;98837.78;;;19.44;21.31
38530;BME280;24301;54.332;48.386;2023-04-23T12:54:33;98829.97;;;19.57;19.85
38530;BME280;24301;54.332;48.386;2023-04-23T12:57:02;98831.13;;;19.68;20.10
38530;BME280;24301;54.332;48.386;2023-04-23T12:59:30;98838.69;;;19.76;19.52
38530;BME280;24301;54.332;48.386;2023-04-23T13:02:05;98831.94;;;19.87;19.40